Montpelier Station, Virginia
Current Conditions -  °F | °C
As of 11:55 AM on Monday 22 Dec 2014 (Local Time) from KGVE Reporting Station
Haze Haze  
Wind Chill: 27°   Ceiling: 700
Heat Index: 32°   Visibility: 1.7mi
Dew Point: 31°   Wind: 6mph
Humidity: 94%   Direction: 20°NNE
Pressure: 30.21"   Gusts: NA
Location:  38.22°N, 78.17°W
Report Text: KGVE 221655Z AUTO 02005KT 1 3/4SM BR OVC007 00/M01 A3021 RMK AO1 T00021006
Loading
Personal Weather Stations






























Interactive Weather Map New forecast layout! Learn more

10-Day Weather Forecast

Advertisements
Track Severe Weather on mobile